Data for 07/28/2018

Time Sea-Level Adjusted Pressure Absolute Pressure Temperature Relative Humidity Dew Point   
(mb) (inHg) (mb) (inHg) (C) (F) (%) (C) (F)
00:05 1024 30.24 853 25.19 12.9 55.1 68 7.2 44.9
00:10 1024 30.24 853 25.19 12.8 55 69 7.2 44.9
00:15 1024 30.24 853 25.19 12.7 54.9 69 7.3 45.1
00:20 1024 30.24 853 25.19 12.7 54.9 69 7.2 45
00:25 1024 30.24 853 25.19 12.6 54.7 70 7.3 45.2
00:30 1024 30.24 853 25.19 12.5 54.5 70 7.3 45.1
00:35 1024 30.24 853 25.19 12.4 54.4 71 7.4 45.3
00:40 1024 30.24 853 25.19 12.4 54.4 71 7.4 45.4
00:45 1024 30.24 853 25.19 12.4 54.3 72 7.6 45.6
00:50 1024 30.24 853 25.19 12.4 54.2 72 7.6 45.6
00:55 1024 30.24 853 25.19 12.4 54.3 73 7.7 45.8
01:00 1024 30.24 853 25.19 12.3 54.1 74 7.7 45.9
01:05 1024 30.24 853 25.19 12 53.6 74 7.6 45.7
01:10 1023 30.21 853 25.19 11.7 53.1 76 7.6 45.7
01:15 1024 30.24 853 25.19 11.5 52.7 76 7.5 45.5
01:20 1023 30.21 853 25.19 11.5 52.6 76 7.5 45.5
01:25 1023 30.21 853 25.19 11.4 52.6 77 7.5 45.5
01:30 1023 30.21 853 25.19 11.4 52.6 78 7.8 46
01:35 1023 30.21 853 25.19 11.4 52.6 78 7.8 46
01:40 1023 30.21 852 25.16 11.6 52.9 77 7.7 45.8
01:45 1023 30.21 852 25.16 11.8 53.3 76 7.7 45.9
01:50 1023 30.21 852 25.16 11.9 53.4 75 7.7 45.9
01:55 1023 30.21 852 25.16 11.7 53.1 77 7.9 46.2
02:00 1023 30.21 852 25.16 11.4 52.5 78 7.8 46
02:05 1023 30.21 852 25.16 11.3 52.3 77 7.4 45.4
02:10 1023 30.21 852 25.16 11.2 52.1 76 7.2 45
02:15 1023 30.21 852 25.16 11.1 52.1 76 7.1 44.8
02:20 1023 30.21 852 25.16 11.1 51.9 75 6.9 44.3
02:25 1023 30.21 852 25.16 11.1 52 75 6.9 44.3
02:30 1023 30.21 852 25.16 11.3 52.3 74 6.9 44.5
02:35 1023 30.21 852 25.16 11.4 52.4 75 7 44.7
02:40 1023 30.21 852 25.16 11.4 52.5 74 7 44.5
02:45 1023 30.21 852 25.16 11.4 52.5 74 7 44.7
02:50 1023 30.21 852 25.16 11.3 52.3 75 7.1 44.7
02:55 1023 30.21 852 25.16 11.3 52.3 76 7.3 45.1
03:00 1023 30.21 852 25.16 11.2 52.1 77 7.3 45.1
03:05 1023 30.21 852 25.16 11.1 52.1 77 7.3 45.1
03:10 1023 30.21 852 25.16 11.3 52.3 77 7.3 45.2
03:15 1023 30.21 852 25.16 11.3 52.3 77 7.4 45.3
03:20 1023 30.21 852 25.16 11.4 52.6 76 7.3 45.2
03:25 1023 30.21 852 25.16 11.4 52.5 76 7.3 45.1
03:30 1023 30.21 852 25.16 11.5 52.6 76 7.4 45.2
03:35 1023 30.21 852 25.16 11.4 52.6 75 7.3 45.1
03:40 1023 30.21 852 25.16 11.2 52.2 76 7.2 44.9
03:45 1023 30.21 852 25.16 10.8 51.4 78 7.1 44.7
03:50 1023 30.21 852 25.16 10.6 51 78 6.9 44.4
03:55 1023 30.21 852 25.16 10.5 51 78 6.9 44.4
04:00 1023 30.21 852 25.16 10.5 51 78 6.9 44.4
04:05 1023 30.21 852 25.16 10.7 51.2 76 6.6 43.9
04:10 1023 30.21 852 25.16 10.9 51.6 74 6.5 43.7
04:15 1023 30.21 852 25.16 10.9 51.6 73 6.3 43.3
04:20 1023 30.21 852 25.16 10.8 51.4 75 6.5 43.6
04:25 1023 30.21 852 25.16 10.8 51.4 74 6.4 43.6
04:30 1023 30.21 852 25.16 10.6 51.1 75 6.4 43.5
04:35 1023 30.21 852 25.16 10.5 50.9 75 6.2 43.2
04:40 1023 30.21 852 25.16 10.5 50.8 76 6.4 43.5
04:45 1023 30.21 852 25.16 10.5 50.9 76 6.4 43.5
04:50 1023 30.21 852 25.16 10.3 50.6 77 6.5 43.6
04:55 1023 30.21 852 25.16 10.2 50.4 78 6.6 43.9
05:00 1023 30.21 852 25.16 10.3 50.6 76 6.4 43.5
05:05 1023 30.21 852 25.16 10.5 50.8 76 6.5 43.6
05:10 1023 30.21 852 25.16 10.4 50.7 77 6.6 43.8
05:15 1023 30.21 852 25.16 10.2 50.4 78 6.6 43.8
05:20 1023 30.21 852 25.16 10.2 50.4 77 6.5 43.7
05:25 1023 30.21 852 25.16 10.3 50.6 78 6.6 43.9
05:30 1023 30.21 852 25.16 10.4 50.8 76 6.4 43.6
05:35 1023 30.21 852 25.16 10.5 50.8 77 6.6 43.9
05:40 1023 30.21 852 25.16 10.6 51 76 6.5 43.7
05:45 1023 30.21 852 25.16 10.7 51.2 76 6.7 44
05:50 1023 30.21 852 25.16 10.8 51.4 76 6.8 44.2
05:55 1023 30.21 853 25.19 11 51.9 74 6.7 44.1
06:00 1023 30.21 853 25.19 11.3 52.4 75 7 44.6
06:05 1023 30.21 853 25.19 11.6 52.8 73 7 44.6
06:10 1023 30.21 853 25.19 11.7 53 71 6.6 43.9
06:15 1023 30.21 853 25.19 11.8 53.2 70 6.5 43.7
06:20 1023 30.21 853 25.19 11.8 53.3 71 6.7 44.1
06:25 1023 30.21 853 25.19 11.9 53.5 71 6.9 44.4
06:30 1023 30.21 853 25.19 12.2 53.9 67 6.3 43.4
06:35 1023 30.21 853 25.19 12.3 54.1 69 6.9 44.4
06:40 1023 30.21 853 25.19 12.5 54.5 69 6.9 44.5
06:45 1023 30.21 853 25.19 12.7 54.8 67 6.7 44.1
06:50 1023 30.21 853 25.19 12.9 55.2 66 6.7 44.1
06:55 1023 30.21 853 25.19 13.2 55.7 64 6.6 43.9
07:00 1024 30.24 853 25.19 13.5 56.4 65 7.1 44.8
07:05 1024 30.24 853 25.19 13.9 57 64 7.3 45.1
07:10 1024 30.24 853 25.19 14.3 57.8 62 7.3 45.2
07:15 1024 30.24 853 25.19 14.7 58.5 63 7.8 46.1
07:20 1024 30.24 853 25.19 15.3 59.5 61 7.8 46.1
07:25 1024 30.24 853 25.19 15.5 59.8 61 8 46.4
07:30 1024 30.24 853 25.19 15.7 60.3 62 8.5 47.3
07:35 1024 30.24 853 25.19 16.2 61.1 59 8.2 46.8
07:40 1024 30.24 853 25.19 16.1 61 62 8.8 47.9
07:45 1024 30.24 853 25.19 16 60.8 62 8.8 47.9
07:50 1024 30.24 853 25.19 15.7 60.3 62 8.6 47.5
07:55 1024 30.24 853 25.19 15.6 60.2 61 8.3 46.9
08:00 1024 30.24 853 25.19 15.8 60.4 60 8.1 46.6
08:05 1024 30.24 853 25.19 15.9 60.7 61 8.4 47.1
08:10 1024 30.24 853 25.19 16 60.8 59 8.1 46.6
08:15 1024 30.24 853 25.19 16.5 61.7 57 8.2 46.7
08:20 1024 30.24 853 25.19 15.9 60.7 56 7.3 45.2
08:25 1024 30.24 853 25.19 16.7 62.1 54 7.4 45.3
08:30 1024 30.24 853 25.19 17.3 63.2 53 7.9 46.1
08:35 1024 30.24 853 25.19 17.2 62.9 54 7.8 46
08:40 1024 30.24 853 25.19 17.1 62.8 53 7.6 45.8
08:45 1024 30.24 853 25.19 17.5 63.6 52 7.6 45.8
08:50 1024 30.24 853 25.19 18.1 64.5 51 7.9 46.2
08:55 1024 30.24 853 25.19 18.5 65.3 50 8 46.3
09:00 1024 30.24 853 25.19 19 66.3 48 7.8 46.1
09:05 1024 30.24 853 25.19 18.9 65.9 51 8.7 47.6
09:10 1024 30.24 853 25.19 17.7 63.9 52 7.9 46.3
09:15 1024 30.24 853 25.19 18.6 65.5 49 7.9 46.2
09:20 1023 30.21 853 25.19 19.5 67.1 47 8.1 46.6
09:25 1023 30.21 853 25.19 20 68 47 8.4 47.1
09:30 1023 30.21 853 25.19 20 68 47 8.6 47.4
09:35 1023 30.21 853 25.19 19.7 67.5 49 8.8 47.9
09:40 1023 30.21 853 25.19 20 68 48 8.9 48
09:45 1024 30.24 853 25.19 19.7 67.4 50 9 48.3
09:50 1024 30.24 853 25.19 19.6 67.3 48 8.4 47.2
09:55 1023 30.21 853 25.19 19.9 67.9 47 8.4 47.2
10:00 1023 30.21 853 25.19 20.3 68.6 46 8.5 47.3
10:05 1023 30.21 853 25.19 19.8 67.6 48 8.7 47.6
10:10 1023 30.21 853 25.19 20.1 68.3 47 8.7 47.6
10:15 1023 30.21 853 25.19 20.7 69.3 46 8.8 47.8
10:20 1023 30.21 853 25.19 20.7 69.2 47 9.1 48.5
10:25 1023 30.21 853 25.19 19.9 67.9 47 8.3 46.9
10:30 1023 30.21 852 25.16 19.9 67.8 49 9 48.2
10:35 1023 30.21 852 25.16 20.2 68.3 47 8.5 47.3
10:40 1023 30.21 852 25.16 20.8 69.5 45 8.5 47.4
10:45 1023 30.21 852 25.16 21.4 70.4 44 8.7 47.6
10:50 1023 30.21 852 25.16 21.2 70.2 43 8.4 47.1
10:55 1023 30.21 852 25.16 21.9 71.3 42 8.6 47.5
11:00 1023 30.21 852 25.16 21.5 70.7 42 8.4 47
11:05 1023 30.21 852 25.16 21.8 71.2 44 9.2 48.6
11:10 1023 30.21 852 25.16 21.6 70.9 42 8.2 46.8
11:15 1023 30.21 852 25.16 22.3 72.1 40 8.1 46.5
11:20 1023 30.21 852 25.16 22.7 72.8 38 7.9 46.1
11:25 1023 30.21 852 25.16 22.3 72.1 40 8.4 47.1
11:30 1023 30.21 852 25.16 22.7 72.9 38 7.9 46.2
11:35 1023 30.21 852 25.16 22.5 72.5 40 8.5 47.4
11:40 1023 30.21 852 25.16 22.1 71.8 39 7.7 45.9
11:45 1023 30.21 852 25.16 22.4 72.2 40 8.2 46.7
11:50 1022 30.18 852 25.16 22.9 73.2 36 7.1 44.8
11:55 1022 30.18 852 25.16 24 75.1 35 7.9 46.2
12:00 1022 30.18 852 25.16 24.3 75.7 34 7.7 45.9
12:05 1022 30.18 852 25.16 24.5 76.1 35 8.3 46.9
12:10 1022 30.18 852 25.16 24.2 75.5 35 8 46.3
12:15 1022 30.18 852 25.16 24 75.3 35 7.8 46
12:20 1022 30.18 852 25.16 24 75.1 34 7.5 45.4
12:25 1022 30.18 852 25.16 24.2 75.5 33 7.3 45.1
12:30 1022 30.18 851 25.13 25 77 34 8.1 46.6
12:35 1022 30.18 851 25.13 24.8 76.6 35 8.6 47.5
12:40 1022 30.18 851 25.13 24 75.2 35 7.8 46
12:45 1022 30.18 851 25.13 24.9 76.8 34 8.1 46.6
12:50 1022 30.18 851 25.13 25.1 77.2 34 8.3 47
12:55 1022 30.18 851 25.13 24.4 75.8 36 8.7 47.7
13:00 1022 30.18 851 25.13 23.1 73.6 37 7.9 46.2
13:05 1022 30.18 851 25.13 23.7 74.6 35 7.5 45.5
13:10 1022 30.18 851 25.13 23.9 75 33 7 44.6
13:15 1022 30.18 851 25.13 25.2 77.4 30 6.8 44.3
13:20 1022 30.18 851 25.13 25.9 78.6 28 6.4 43.5
13:25 1022 30.18 851 25.13 25.3 77.6 28 5.8 42.5
13:30 1022 30.18 851 25.13 25.6 78.1 26 4.9 40.9
13:35 1022 30.18 851 25.13 26.4 79.4 24 4.2 39.5
13:40 1022 30.18 851 25.13 25.3 77.5 29 6.1 43
13:45 1022 30.18 851 25.13 25.6 78 28 5.7 42.3
13:50 1022 30.18 851 25.13 25.6 78.2 27 5.3 41.6
13:55 1022 30.18 851 25.13 26.3 79.3 26 5.5 41.8
14:00 1022 30.18 851 25.13 26.4 79.5 27 5.9 42.7
14:05 1022 30.18 851 25.13 25.7 78.3 26 5 41
14:10 1022 30.18 851 25.13 26.1 78.9 27 5.8 42.4
14:15 1022 30.18 851 25.13 25.2 77.3 27 5 41
14:20 1022 30.18 851 25.13 25.1 77.1 28 5.4 41.7
14:25 1022 30.18 851 25.13 25.4 77.7 26 4.7 40.5
14:30 1022 30.18 851 25.13 25.4 77.7 26 5 41
14:35 1022 30.18 851 25.13 25.2 77.3 27 4.9 40.8
14:40 1022 30.18 851 25.13 25.2 77.4 25 4 39.2
14:45 1022 30.18 851 25.13 25.3 77.6 25 3.8 38.9
14:50 1022 30.18 851 25.13 25.2 77.4 25 3.8 38.9
14:55 1022 30.18 851 25.13 25.3 77.5 24 3.7 38.6
15:00 1022 30.18 851 25.13 25 76.9 25 3.8 38.9
15:05 1022 30.18 851 25.13 24.8 76.6 26 4 39.3
15:10 1022 30.18 851 25.13 24.7 76.4 27 4.5 40.2
15:15 1022 30.18 851 25.13 24.9 76.8 29 5.8 42.5
15:20 1022 30.18 851 25.13 23.8 74.8 37 8.3 47
15:25 1022 30.18 851 25.13 22.9 73.3 38 7.9 46.2
15:30 1022 30.18 851 25.13 23.6 74.4 35 7.3 45.2
15:35 1022 30.18 851 25.13 24.4 75.9 33 7.5 45.4
15:40 1022 30.18 851 25.13 24.1 75.4 31 6.1 42.9
15:45 1022 30.18 851 25.13 24.2 75.6 30 5.9 42.6
15:50 1022 30.18 851 25.13 24.5 76 31 6.3 43.3
15:55 1022 30.18 851 25.13 23.9 75 32 6.3 43.3
16:00 1022 30.18 851 25.13 23.6 74.5 33 6.5 43.7
16:05 1022 30.18 851 25.13 23.1 73.7 35 7 44.7
16:10 1022 30.18 851 25.13 22.9 73.3 37 7.8 46
16:15 1022 30.18 851 25.13 22.8 73 38 8 46.4
16:20 1022 30.18 852 25.16 22.5 72.5 38 7.8 46.1
16:25 1022 30.18 852 25.16 22.3 72.1 40 8.2 46.7
16:30 1022 30.18 852 25.16 22.1 71.7 41 8.5 47.3
16:35 1022 30.18 852 25.16 21.8 71.2 40 7.7 45.9
16:40 1022 30.18 851 25.13 22 71.5 40 7.8 46
16:45 1022 30.18 851 25.13 22.2 72 38 7.5 45.6
16:50 1022 30.18 851 25.13 23 73.3 37 7.7 45.9
16:55 1021 30.15 851 25.13 23.3 73.9 36 7.4 45.3
17:00 1021 30.15 851 25.13 23.6 74.5 32 6.2 43.2
17:05 1021 30.15 851 25.13 24.8 76.6 31 6.7 44.1
17:10 1022 30.18 851 25.13 25.5 78 31 7.2 44.9
17:15 1022 30.18 851 25.13 25.8 78.5 31 7.6 45.7
17:20 1022 30.18 851 25.13 25.1 77.2 31 7.2 44.9
17:25 1022 30.18 851 25.13 24.6 76.3 32 7.2 45
17:30 1022 30.18 851 25.13 24.7 76.4 34 7.9 46.2
17:35 1022 30.18 851 25.13 24.3 75.7 34 7.7 45.9
17:40 1022 30.18 851 25.13 24.1 75.3 34 7.3 45.2
17:45 1022 30.18 851 25.13 24 75.3 32 6.8 44.2
17:50 1022 30.18 851 25.13 24.2 75.5 33 7 44.7
17:55 1022 30.18 851 25.13 23.9 75 32 6.6 43.9
18:00 1022 30.18 851 25.13 22.4 72.2 44 9.6 49.2
18:05 1022 30.18 851 25.13 21.1 70 47 9.5 49
18:10 1022 30.18 851 25.13 20.9 69.6 47 9.4 48.9
18:15 1022 30.18 851 25.13 20.4 68.7 48 9.2 48.5
18:20 1022 30.18 851 25.13 20.1 68.1 50 9.3 48.7
18:25 1022 30.18 851 25.13 19.8 67.6 50 9.2 48.5
18:30 1022 30.18 851 25.13 19.5 67 51 9.3 48.8
18:35 1022 30.18 852 25.16 19.3 66.8 53 9.5 49.2
18:40 1022 30.18 852 25.16 19.1 66.3 54 9.6 49.3
18:45 1022 30.18 852 25.16 18.9 66.1 55 9.8 49.7
18:50 1022 30.18 852 25.16 18.8 65.9 55 9.8 49.6
18:55 1023 30.21 852 25.16 18.7 65.6 55 9.5 49.1
19:00 1023 30.21 852 25.16 18.6 65.4 54 9.1 48.4
19:05 1023 30.21 852 25.16 18.5 65.3 53 9 48.1
19:10 1023 30.21 852 25.16 18.4 65.1 54 9 48.3
19:15 1023 30.21 852 25.16 18.3 65 54 8.9 48.1
19:20 1023 30.21 852 25.16 18.2 64.8 54 9 48.1
19:25 1023 30.21 852 25.16 18.1 64.6 55 9 48.2
19:30 1023 30.21 852 25.16 18 64.4 55 8.9 48
19:35 1023 30.21 852 25.16 18 64.3 55 8.9 47.9
19:40 1023 30.21 852 25.16 17.8 64.1 55 8.8 47.8
19:45 1023 30.21 852 25.16 17.7 63.9 55 8.6 47.5
19:50 1023 30.21 852 25.16 17.6 63.6 55 8.6 47.4
19:55 1023 30.21 853 25.19 17.4 63.3 55 8.4 47.2
20:00 1023 30.21 853 25.19 17.3 63.2 55 8.3 46.9
20:05 1023 30.21 853 25.19 17.2 62.9 55 8.2 46.8
20:10 1023 30.21 853 25.19 17.1 62.7 55 8 46.5
20:15 1024 30.24 853 25.19 17 62.6 55 8.1 46.6
20:20 1024 30.24 853 25.19 16.9 62.4 56 8.1 46.6
20:25 1024 30.24 853 25.19 16.8 62.2 56 7.9 46.3
20:30 1024 30.24 853 25.19 16.8 62.2 56 8 46.4
20:35 1024 30.24 853 25.19 16.7 62 56 7.9 46.1
20:40 1024 30.24 853 25.19 16.6 61.9 56 7.8 46.1
20:45 1024 30.24 853 25.19 16.5 61.7 56 7.7 45.9
20:50 1024 30.24 853 25.19 16.5 61.6 55 7.6 45.7
20:55 1024 30.24 853 25.19 16.5 61.8 55 7.5 45.4
21:00 1024 30.24 853 25.19 16.6 61.8 54 7.4 45.3
21:05 1024 30.24 853 25.19 16.6 61.8 55 7.5 45.6
21:10 1024 30.24 854 25.22 16.5 61.6 55 7.6 45.7
21:15 1024 30.24 854 25.22 16.4 61.6 55 7.4 45.3
21:20 1024 30.24 854 25.22 16.4 61.6 56 7.6 45.7
21:25 1024 30.24 854 25.22 16.3 61.4 57 7.8 46
21:30 1024 30.24 854 25.22 16.3 61.3 57 7.8 46
21:35 1024 30.24 854 25.22 16.3 61.3 57 7.9 46.2
21:40 1024 30.24 854 25.22 16.3 61.3 57 7.8 46.1
21:45 1025 30.27 854 25.22 16.4 61.4 57 7.9 46.2
21:50 1025 30.27 854 25.22 16.3 61.3 57 7.9 46.2
21:55 1024 30.24 854 25.22 16.2 61.2 58 7.9 46.3
22:00 1024 30.24 854 25.22 16.2 61.1 58 7.9 46.2
22:05 1024 30.24 854 25.22 16.2 61.2 58 8 46.3
22:10 1024 30.24 854 25.22 16.2 61.1 58 7.9 46.3
22:15 1024 30.24 854 25.22 16.2 61.1 58 7.9 46.3
22:20 1025 30.27 854 25.22 16.2 61.1 58 7.9 46.3
22:25 1025 30.27 854 25.22 16.1 61 58 8 46.4
22:30 1025 30.27 854 25.22 16.1 61 57 7.8 46
22:35 1025 30.27 854 25.22 16.2 61.1 58 7.9 46.2
22:40 1025 30.27 854 25.22 16 60.7 58 7.8 46.1
22:45 1025 30.27 854 25.22 15.9 60.6 57 7.5 45.6
22:50 1025 30.27 854 25.22 15.9 60.7 58 7.6 45.8
22:55 1025 30.27 854 25.22 15.9 60.6 56 7.2 45
23:00 1025 30.27 854 25.22 16 60.8 55 7.1 44.8
23:05 1025 30.27 854 25.22 16 60.8 55 7.1 44.8
23:10 1025 30.27 854 25.22 16 60.8 55 7.1 44.8
23:15 1025 30.27 854 25.22 15.9 60.7 55 7.1 44.8
23:20 1025 30.27 854 25.22 15.8 60.4 57 7.3 45.1
23:25 1025 30.27 854 25.22 15.5 59.9 59 7.6 45.6
23:30 1025 30.27 854 25.22 15.2 59.3 59 7.3 45.2
23:35 1025 30.27 854 25.22 15.1 59.1 59 7.2 45
23:40 1025 30.27 854 25.22 15 59.1 59 7.1 44.8
23:45 1025 30.27 854 25.22 15.1 59.2 57 6.8 44.2
23:50 1025 30.27 854 25.22 15.2 59.4 58 7.1 44.8
23:55 1025 30.27 854 25.22 14.8 58.7 60 7.1 44.8
24:00 1025 30.27 854 25.22 14.6 58.2 59 6.8 44.2